Cape Girardeau, MO (63701)

9:40 AM CDT on July 31, 2015 (GMT -0500)
Timber Creek | | Change Station
CLOSE
Current Station
Personal Weather Station
Location: Cape Girardeau, MO
Elevation: 440 ft
Nearby Weather Stations
Active Advisory: Flood Warning

Elev 440 ft 37.34 °N, 89.54 °W | Updated 4 minutes ago

Clear
Clear
83.1 °F
Feels Like 88 °F
N
0.0
Wind Variable Wind from NE
Gusts 3.0 mph

Today
High -- | Low -- °F
--% Chance of Precip.
Yesterday
High -- | Low -- °F
Precip. -- in
6:01 AM 8:06 PM
Full, 100% visible
Pressure 30.12 in
Visibility 10.0 miles
Clouds Clear
Heat Index 88 °F
Dew Point 71 °F
Humidity 67%
Rainfall 0.00 in
Snow Depth Not available.
UV 3.4 out of 12
Pollen 6.90 out of 12
Air Quality Not available.
Flu Activity Not available.
METAR KCGI 311353Z 33006KT 10SM CLR 26/18 A3012 RMK AO2 SLP197 T02610183

More Conditions Fewer Conditions

Pressure 30.12 in
Visibility 10.0 miles
Clouds Clear
Heat Index 88 °F
Dew Point 71 °F
Humidity 67%
Rainfall 0.00 in
Snow Depth Not available.
UV 3.4 out of 12
Pollen 6.90 out of 12
Air Quality Not available.
Flu Activity Not available.
METAR KCGI 311353Z 33006KT 10SM CLR 26/18 A3012 RMK AO2 SLP197 T02610183

More Conditions Fewer Conditions

10-Day Weather Forecast

×

Almanac

Astronomy

Jul. 31, 2015 Rise Set
Actual Time
Civil Twilight
Nautical Twilight
Astronomical Twilight
Moon
Length of Visible Light
Length of Day
Tomorrow will be .
, % of the Moon is Illuminated

Today's Extremes

State Highs State Lows

Community

WunderPhotos

Upload Photos

1,842,666 photos uploaded!

WunderBlogs® & News

Nearby

Air Quality

  Air Quality AQ Index Pollutant
Not available.

Snow Depth

Station Depth Elevation

Earthquake Activity

City Distance Mag. Time & Date
Minimum magnitude displayed is 2.5.

Coastal Water Temperatures

Place Temperature

Stations

Nearby Weather Stations

Station Location Temp. Windchill Dew Point Humidity Wind Precip. Elev Updated Type
                   
Flood Warning
Statement as of 8:05 PM CDT on July 30, 2015

The Flood Warning continues for the Mississippi River at Cape Girardeau.
* Until Saturday evening.
* At 8 PM Thursday the stage was 32.5 feet.
* Flood stage is 32.0 feet.
* Minor flooding is occurring and minor flooding is forecast.
* Forecast... the river is cresting at this time.
* Impact... at 32.0 feet... minor flooding occurs. The Mississippi
River backs into several creeks producing flooding.


Lat... Lon 3769 8959 3732 8963 3723 8959 3725 8941
      3744 8934 3769 8935